createdAt,value
2022-08-11T00:01:55.629Z,3.30
2022-08-11T00:04:26.767Z,3.30
2022-08-11T00:06:55.526Z,3.05
2022-08-11T00:09:25.279Z,3.10
2022-08-11T00:11:58.732Z,3.22
2022-08-11T00:14:37.121Z,3.38
2022-08-11T00:17:07.908Z,3.20
2022-08-11T00:20:14.172Z,3.10
2022-08-11T00:22:29.875Z,3.22
2022-08-11T00:25:02.425Z,3.50
2022-08-11T00:27:35.038Z,3.25
2022-08-11T00:30:04.506Z,3.20
2022-08-11T00:32:33.730Z,3.22
2022-08-11T00:35:51.906Z,3.25
2022-08-11T00:37:55.759Z,3.00
2022-08-11T00:40:27.356Z,2.88
2022-08-11T00:43:00.500Z,3.13
2022-08-11T00:45:31.073Z,3.17
2022-08-11T00:48:04.983Z,3.40
2022-08-11T00:50:42.856Z,3.38
2022-08-11T00:53:32.305Z,3.42
2022-08-11T00:56:13.584Z,3.35
2022-08-11T00:58:59.152Z,3.40
2022-08-11T01:01:34.743Z,3.25
2022-08-11T01:04:25.611Z,3.50
2022-08-11T01:07:09.077Z,3.17
2022-08-11T01:09:42.689Z,3.17
2022-08-11T01:12:31.948Z,3.40
2022-08-11T01:15:17.000Z,3.25
2022-08-11T01:18:12.780Z,3.33
2022-08-11T01:21:00.115Z,3.40
2022-08-11T01:23:47.376Z,3.33
2022-08-11T01:26:34.752Z,3.17
2022-08-11T01:29:21.784Z,3.53
2022-08-11T01:32:14.205Z,3.15
2022-08-11T01:35:01.748Z,3.22
2022-08-11T01:37:49.962Z,3.33
2022-08-11T01:40:39.234Z,3.20
2022-08-11T01:43:44.051Z,3.50
2022-08-11T01:46:16.144Z,3.08
2022-08-11T01:48:46.595Z,3.45
2022-08-11T01:51:35.072Z,3.40
2022-08-11T01:54:07.529Z,3.20
2022-08-11T01:56:40.113Z,3.22
2022-08-11T01:59:16.038Z,3.00
2022-08-11T02:01:52.339Z,3.28
2022-08-11T02:04:26.904Z,3.33
2022-08-11T02:06:58.492Z,3.30
2022-08-11T02:09:50.037Z,3.60
2022-08-11T02:12:29.029Z,3.10
2022-08-11T02:15:05.227Z,3.13
2022-08-11T02:17:40.585Z,3.90
2022-08-11T02:20:30.076Z,3.35
2022-08-11T02:23:41.047Z,3.25
2022-08-11T02:26:09.693Z,3.78
2022-08-11T02:28:46.643Z,3.58
2022-08-11T02:32:23.739Z,3.85
2022-08-11T02:34:30.355Z,3.75
2022-08-11T02:37:03.023Z,3.13
2022-08-11T02:39:39.359Z,3.45
2022-08-11T02:42:33.442Z,3.30
2022-08-11T02:45:20.006Z,3.58
2022-08-11T02:48:28.436Z,3.90
2022-08-11T02:51:02.844Z,3.80
2022-08-11T02:53:34.129Z,3.50
2022-08-11T02:56:09.712Z,3.90
2022-08-11T02:58:43.163Z,3.45
2022-08-11T03:01:17.397Z,3.30
2022-08-11T03:03:52.646Z,3.60
2022-08-11T03:06:31.613Z,3.08
2022-08-11T03:09:05.282Z,3.35
2022-08-11T03:12:02.432Z,3.67
2022-08-11T03:14:54.119Z,3.65
2022-08-11T03:17:26.865Z,3.63
2022-08-11T03:20:02.043Z,4.00
2022-08-11T03:22:35.016Z,3.63
2022-08-11T03:25:04.678Z,3.83
2022-08-11T03:27:41.927Z,3.55
2022-08-11T03:30:15.450Z,3.53
2022-08-11T03:33:07.555Z,3.72
2022-08-11T03:35:39.657Z,3.90
2022-08-11T03:38:10.858Z,3.58
2022-08-11T03:42:01.155Z,4.10
2022-08-11T03:44:09.497Z,3.88
2022-08-11T03:46:45.285Z,3.97
2022-08-11T03:49:24.835Z,3.60
2022-08-11T03:51:55.433Z,3.92
2022-08-11T03:54:29.371Z,4.25
2022-08-11T03:57:22.207Z,4.35
2022-08-11T04:00:07.962Z,4.47
2022-08-11T04:03:10.039Z,3.83
2022-08-11T04:05:50.392Z,4.05
2022-08-11T04:08:52.109Z,3.83
2022-08-11T04:11:37.421Z,4.68
2022-08-11T04:14:42.019Z,4.13
2022-08-11T04:17:25.264Z,4.10
2022-08-11T04:20:18.857Z,4.25
2022-08-11T04:23:05.428Z,4.43
2022-08-11T04:25:58.590Z,4.30
2022-08-11T04:28:45.715Z,4.57
2022-08-11T04:31:51.220Z,3.67
2022-08-11T04:34:38.009Z,4.05
2022-08-11T04:37:32.525Z,3.97
2022-08-11T04:40:22.034Z,3.97
2022-08-11T04:43:23.456Z,4.30
2022-08-11T04:46:03.546Z,4.75
2022-08-11T04:49:06.006Z,4.40
2022-08-11T04:52:03.174Z,4.80
2022-08-11T04:54:55.144Z,5.05
2022-08-11T05:00:30.710Z,4.32
2022-08-11T05:03:19.424Z,4.40
2022-08-11T05:05:56.805Z,4.15
2022-08-11T05:08:55.383Z,4.95
2022-08-11T05:11:41.688Z,4.00
2022-08-11T05:14:48.746Z,4.88
2022-08-11T05:17:42.564Z,4.47
2022-08-11T05:20:44.393Z,4.53
2022-08-11T05:23:31.227Z,4.40
2022-08-11T05:26:46.974Z,4.10
2022-08-11T05:29:43.414Z,4.80
2022-08-11T05:32:31.857Z,4.18
2022-08-11T05:35:04.227Z,4.30
2022-08-11T05:37:35.732Z,4.32
2022-08-11T05:40:25.860Z,4.47
2022-08-11T05:43:15.431Z,4.53
2022-08-11T05:46:04.580Z,4.72
2022-08-11T05:48:53.255Z,4.30
2022-08-11T05:51:51.908Z,4.00
2022-08-11T05:54:42.276Z,4.38
2022-08-11T05:57:49.884Z,4.20
2022-08-11T06:00:05.252Z,4.40
2022-08-11T06:02:35.540Z,4.07
2022-08-11T06:05:04.456Z,4.30
2022-08-11T06:07:48.996Z,4.35
2022-08-11T06:10:27.307Z,4.78
2022-08-11T06:12:56.978Z,4.47
2022-08-11T06:15:27.151Z,4.43
2022-08-11T06:17:57.099Z,5.25
2022-08-11T06:20:25.890Z,4.20
2022-08-11T06:23:00.101Z,4.65
2022-08-11T06:25:33.316Z,4.18
2022-08-11T06:28:02.365Z,4.30
2022-08-11T06:30:36.319Z,4.28
2022-08-11T06:33:05.574Z,4.43
2022-08-11T06:35:38.117Z,4.32
2022-08-11T06:38:09.816Z,4.60
2022-08-11T06:41:05.911Z,4.50
2022-08-11T06:43:38.431Z,4.57
2022-08-11T06:46:09.453Z,4.68
2022-08-11T06:48:41.528Z,4.70
2022-08-11T06:51:13.119Z,4.82
2022-08-11T06:53:57.651Z,4.40
2022-08-11T06:59:55.096Z,4.70
2022-08-11T07:02:30.982Z,4.63
2022-08-11T07:05:02.621Z,4.43
2022-08-11T07:08:33.842Z,5.22
2022-08-11T07:11:27.408Z,4.47
2022-08-11T07:14:16.670Z,4.75
2022-08-11T07:16:46.529Z,4.70
2022-08-11T07:19:34.370Z,4.45
2022-08-11T07:22:32.123Z,4.85
2022-08-11T07:25:20.731Z,4.43
2022-08-11T07:28:11.448Z,4.15
2022-08-11T07:30:42.186Z,4.43
2022-08-11T07:33:20.731Z,4.70
2022-08-11T07:36:02.200Z,4.45
2022-08-11T07:38:46.007Z,4.63
2022-08-11T07:41:17.159Z,4.75
2022-08-11T07:43:49.710Z,4.40
2022-08-11T07:46:36.787Z,4.00
2022-08-11T07:49:24.100Z,4.75
2022-08-11T07:52:10.565Z,4.63
2022-08-11T07:54:40.118Z,4.35
2022-08-11T07:57:43.978Z,4.25
2022-08-11T08:00:36.292Z,4.22
2022-08-11T08:03:24.048Z,4.55
2022-08-11T08:06:28.475Z,4.03
2022-08-11T08:09:16.992Z,4.65
2022-08-11T08:12:04.049Z,4.28
2022-08-11T08:14:51.147Z,4.10
2022-08-11T08:17:39.242Z,4.32
2022-08-11T08:20:10.230Z,4.25
2022-08-11T08:22:41.183Z,4.60
2022-08-11T08:25:12.049Z,4.30
2022-08-11T08:27:43.661Z,4.55
2022-08-11T08:33:01.150Z,5.65
2022-08-11T08:35:33.037Z,4.95
2022-08-11T08:38:02.076Z,4.25
2022-08-11T08:40:30.873Z,4.40
2022-08-11T08:43:05.476Z,4.53
2022-08-11T08:45:37.706Z,5.03
2022-08-11T08:48:11.360Z,5.18
2022-08-11T08:50:59.599Z,4.57
2022-08-11T08:53:32.867Z,4.97
2022-08-11T08:56:02.427Z,5.20
2022-08-11T08:58:31.660Z,5.13
2022-08-11T09:01:01.646Z,4.95
2022-08-11T09:04:02.938Z,4.30
2022-08-11T09:06:22.307Z,4.72
2022-08-11T09:08:51.959Z,4.22
2022-08-11T09:11:42.512Z,4.40
2022-08-11T09:14:15.032Z,4.45
2022-08-11T09:16:44.949Z,5.05
2022-08-11T09:19:18.304Z,4.72
2022-08-11T09:22:08.730Z,4.47
2022-08-11T09:24:55.369Z,4.85
2022-08-11T09:27:24.959Z,4.45
2022-08-11T09:29:53.756Z,4.63
2022-08-11T09:32:23.147Z,4.57
2022-08-11T09:34:54.085Z,4.47
2022-08-11T09:37:55.294Z,4.45
2022-08-11T09:40:32.313Z,4.70
2022-08-11T09:43:19.326Z,4.45
2022-08-11T09:45:51.420Z,4.72
2022-08-11T09:48:20.945Z,4.43
2022-08-11T09:50:51.829Z,4.43
2022-08-11T09:53:36.573Z,5.00
2022-08-11T09:56:29.056Z,4.38
2022-08-11T09:58:57.909Z,4.15
2022-08-11T10:01:30.142Z,4.47
2022-08-11T10:04:01.493Z,4.75
2022-08-11T10:06:54.106Z,4.55
2022-08-11T10:09:25.212Z,4.20
2022-08-11T10:11:55.530Z,4.65
2022-08-11T10:14:44.536Z,4.30
2022-08-11T10:17:15.245Z,4.07
2022-08-11T10:19:44.744Z,4.07
2022-08-11T10:22:50.791Z,4.22
2022-08-11T10:25:37.173Z,4.40
2022-08-11T10:28:28.604Z,3.90
2022-08-11T10:31:13.723Z,4.60
2022-08-11T10:34:00.140Z,3.85
2022-08-11T10:36:29.292Z,4.10
2022-08-11T10:39:00.037Z,4.00
2022-08-11T10:42:06.882Z,3.60
2022-08-11T10:44:39.357Z,4.00
2022-08-11T10:47:26.016Z,4.25
2022-08-11T10:50:09.392Z,4.22
2022-08-11T10:52:56.322Z,3.75
2022-08-11T10:55:44.729Z,3.65
2022-08-11T10:58:31.339Z,4.10
2022-08-11T11:01:01.062Z,3.92
2022-08-11T11:03:30.539Z,3.83
2022-08-11T11:06:13.265Z,4.22
2022-08-11T11:08:58.799Z,4.35
2022-08-11T11:11:52.196Z,4.07
2022-08-11T11:14:46.338Z,4.03
2022-08-11T11:17:40.955Z,3.97
2022-08-11T11:20:34.592Z,4.20
2022-08-11T11:23:03.624Z,3.60
2022-08-11T11:25:37.238Z,3.78
2022-08-11T11:28:29.815Z,3.78
2022-08-11T11:31:05.897Z,4.05
2022-08-11T11:33:57.391Z,3.80
2022-08-11T11:36:34.375Z,3.70
2022-08-11T11:39:03.065Z,4.10
2022-08-11T11:41:31.841Z,4.10
2022-08-11T11:44:01.693Z,4.35
2022-08-11T11:46:32.342Z,3.63
2022-08-11T11:49:14.000Z,3.90
2022-08-11T11:51:49.857Z,4.30
2022-08-11T11:54:19.706Z,3.65
2022-08-11T11:56:48.497Z,3.92
2022-08-11T11:59:35.014Z,3.63
2022-08-11T12:02:11.793Z,3.70
2022-08-11T12:04:43.471Z,3.80
2022-08-11T12:07:30.420Z,3.63
2022-08-11T12:10:00.290Z,3.60
2022-08-11T12:12:46.690Z,3.58
2022-08-11T12:15:19.053Z,3.58
2022-08-11T12:18:09.628Z,4.00
2022-08-11T12:20:39.292Z,3.30
2022-08-11T12:23:25.802Z,3.47
2022-08-11T12:26:27.809Z,4.20
2022-08-11T12:28:58.279Z,3.55
2022-08-11T12:31:27.162Z,3.28
2022-08-11T12:34:03.541Z,3.58
2022-08-11T12:36:34.959Z,3.58
2022-08-11T12:39:23.194Z,3.33
2022-08-11T12:42:11.553Z,3.40
2022-08-11T12:44:58.007Z,3.13
2022-08-11T12:48:57.292Z,3.47
2022-08-11T12:50:55.060Z,3.30
2022-08-11T12:53:26.165Z,3.38
2022-08-11T12:56:13.312Z,3.40
2022-08-11T12:58:43.227Z,3.47
2022-08-11T13:01:30.450Z,3.00
2022-08-11T13:04:16.839Z,3.30
2022-08-11T13:06:47.073Z,3.40
2022-08-11T13:09:16.045Z,3.70
2022-08-11T13:12:02.599Z,3.85
2022-08-11T13:14:32.913Z,3.33
2022-08-11T13:17:19.467Z,3.22
2022-08-11T13:19:49.676Z,3.85
2022-08-11T13:22:20.716Z,3.20
2022-08-11T13:24:50.504Z,3.13
2022-08-11T13:27:20.825Z,3.67
2022-08-11T13:29:52.557Z,3.30
2022-08-11T13:34:49.888Z,3.03
2022-08-11T13:38:18.431Z,3.63
2022-08-11T13:40:11.839Z,3.90
2022-08-11T13:42:41.243Z,3.92
2022-08-11T13:45:10.399Z,3.80
2022-08-11T13:47:40.201Z,3.92
2022-08-11T13:50:13.499Z,3.90
2022-08-11T13:52:43.881Z,3.80
2022-08-11T13:55:35.031Z,4.05
2022-08-11T13:58:19.005Z,3.50
2022-08-11T14:00:52.624Z,3.45
2022-08-11T14:03:23.296Z,3.65
2022-08-11T14:05:53.861Z,3.30
2022-08-11T14:08:37.109Z,2.92
2022-08-11T14:12:22.703Z,3.20
2022-08-11T14:14:18.193Z,3.13
2022-08-11T14:16:47.462Z,3.08
2022-08-11T14:19:18.512Z,3.33
2022-08-11T14:22:07.614Z,3.78
2022-08-11T14:24:39.542Z,3.20
2022-08-11T14:28:32.503Z,3.45
2022-08-11T14:29:58.269Z,3.42
2022-08-11T14:32:27.803Z,3.22
2022-08-11T14:34:56.820Z,3.53
2022-08-11T14:37:27.046Z,3.00
2022-08-11T14:40:05.103Z,3.45
2022-08-11T14:42:56.608Z,3.55
2022-08-11T14:45:54.882Z,3.08
2022-08-11T14:48:28.462Z,2.70
2022-08-11T14:50:57.980Z,3.35
2022-08-11T14:53:26.808Z,3.15
2022-08-11T14:56:14.619Z,3.17
2022-08-11T14:58:44.540Z,3.20
2022-08-11T15:01:27.409Z,3.45
2022-08-11T15:04:25.123Z,3.10
2022-08-11T15:06:45.191Z,3.25
2022-08-11T15:09:13.879Z,3.17
2022-08-11T15:12:01.940Z,3.10
2022-08-11T15:14:48.408Z,3.10
2022-08-11T15:17:17.323Z,3.08
2022-08-11T15:20:00.444Z,3.15
2022-08-11T15:22:46.922Z,3.38
2022-08-11T15:25:15.885Z,3.40
2022-08-11T15:28:05.986Z,3.40
2022-08-11T15:30:53.044Z,2.90
2022-08-11T15:33:39.465Z,3.03
2022-08-11T15:36:26.862Z,3.00
2022-08-11T15:38:57.272Z,2.80
2022-08-11T15:41:46.057Z,3.38
2022-08-11T15:45:03.961Z,2.97
2022-08-11T15:47:37.370Z,2.83
2022-08-11T15:50:12.000Z,3.47
2022-08-11T15:52:47.413Z,3.25
2022-08-11T15:55:16.190Z,3.22
2022-08-11T15:58:03.024Z,2.90
2022-08-11T16:00:58.880Z,3.13
2022-08-11T16:04:06.390Z,2.95
2022-08-11T16:06:38.382Z,3.00
2022-08-11T16:09:18.485Z,2.92
2022-08-11T16:11:48.346Z,2.90
2022-08-11T16:14:35.501Z,2.90
2022-08-11T16:17:06.568Z,2.88
2022-08-11T16:19:36.462Z,3.28
2022-08-11T16:22:07.345Z,2.72
2022-08-11T16:27:02.913Z,2.57
2022-08-11T16:27:27.445Z,2.53
2022-08-11T16:29:57.213Z,2.80
2022-08-11T16:32:27.604Z,2.40
2022-08-11T16:35:15.701Z,2.97
2022-08-11T16:38:03.001Z,3.33
2022-08-11T16:40:32.675Z,2.75
2022-08-11T16:43:19.581Z,2.65
2022-08-11T16:46:07.177Z,2.60
2022-08-11T16:48:39.127Z,2.53
2022-08-11T16:51:08.719Z,2.50
2022-08-11T16:53:54.768Z,2.53
2022-08-11T16:56:30.090Z,2.67
2022-08-11T16:59:15.253Z,2.50
2022-08-11T17:01:46.107Z,2.80
2022-08-11T17:04:38.675Z,3.00
2022-08-11T17:07:42.415Z,3.70
2022-08-11T17:10:51.924Z,3.60
2022-08-11T17:13:24.642Z,3.63
2022-08-11T17:16:08.688Z,3.33
2022-08-11T17:18:44.132Z,3.03
2022-08-11T17:21:25.681Z,3.58
2022-08-11T17:23:55.068Z,3.15
2022-08-11T17:26:26.122Z,3.38
2022-08-11T17:28:56.339Z,3.07
2022-08-11T17:31:43.727Z,3.30
2022-08-11T17:34:30.972Z,3.17
2022-08-11T17:37:01.829Z,3.20
2022-08-11T17:39:32.655Z,3.33
2022-08-11T17:42:20.177Z,3.10
2022-08-11T17:45:07.680Z,3.42
2022-08-11T17:47:54.434Z,3.38
2022-08-11T17:50:23.205Z,16.02
2022-08-11T17:53:11.562Z,78.10
2022-08-11T17:55:58.584Z,98.93
2022-08-11T17:58:45.502Z,91.35
2022-08-11T18:01:14.782Z,66.38
2022-08-11T18:03:54.621Z,74.18
2022-08-11T18:06:34.745Z,46.17
2022-08-11T18:09:24.726Z,27.67
2022-08-11T18:12:12.732Z,85.18
2022-08-11T18:15:01.836Z,110.07
2022-08-11T18:17:48.485Z,43.42
2022-08-11T18:20:34.840Z,31.02
2022-08-11T18:23:40.549Z,23.95
2022-08-11T18:26:31.771Z,21.42
2022-08-11T18:29:18.715Z,15.70
2022-08-11T18:32:07.898Z,15.68
2022-08-11T18:34:56.756Z,14.77
2022-08-11T18:37:45.381Z,9.75
2022-08-11T18:40:35.718Z,10.90
2022-08-11T18:43:27.255Z,7.20
2022-08-11T18:46:16.121Z,7.57
2022-08-11T18:49:10.656Z,6.63
2022-08-11T18:51:59.682Z,7.18
2022-08-11T18:54:51.237Z,7.78
2022-08-11T18:57:49.498Z,5.35
2022-08-11T19:00:42.753Z,6.10
2022-08-11T19:03:30.711Z,5.28
2022-08-11T19:06:38.716Z,4.32
2022-08-11T19:09:27.346Z,4.63
2022-08-11T19:12:14.461Z,4.32
2022-08-11T19:15:01.104Z,3.97
2022-08-11T19:17:50.053Z,3.92
2022-08-11T19:20:37.524Z,4.00
2022-08-11T19:23:25.104Z,3.83
2022-08-11T19:26:11.470Z,4.53
2022-08-11T19:28:59.319Z,3.88
2022-08-11T19:31:47.135Z,3.70
2022-08-11T19:34:35.638Z,3.35
2022-08-11T19:37:25.106Z,3.20
2022-08-11T19:40:12.620Z,3.55
2022-08-11T19:42:59.660Z,3.10
2022-08-11T19:45:52.238Z,3.30
2022-08-11T19:48:39.528Z,3.20
2022-08-11T19:51:27.508Z,96.35
2022-08-11T19:54:15.750Z,115.70
2022-08-11T19:57:02.146Z,76.53
2022-08-11T19:59:49.095Z,67.05
2022-08-11T20:02:35.593Z,119.30
2022-08-11T20:05:21.929Z,172.75
2022-08-11T20:08:10.012Z,181.02
2022-08-11T20:10:56.332Z,163.73
2022-08-11T20:13:44.786Z,156.23
2022-08-11T20:16:32.232Z,129.52
2022-08-11T20:19:19.117Z,107.80
2022-08-11T20:22:12.130Z,131.18
2022-08-11T20:25:00.173Z,169.60
2022-08-11T20:27:46.780Z,184.90
2022-08-11T20:30:33.128Z,204.93
2022-08-11T20:33:20.744Z,155.88
2022-08-11T20:36:09.043Z,65.20
2022-08-11T20:38:55.311Z,69.00
2022-08-11T20:41:58.854Z,79.75
2022-08-11T20:44:46.601Z,69.65
2022-08-11T20:47:59.265Z,51.10
2022-08-11T20:50:40.947Z,45.90
2022-08-11T20:53:27.803Z,39.97
2022-08-11T20:56:14.737Z,27.65
2022-08-11T20:59:21.757Z,23.20
2022-08-11T21:02:09.993Z,19.70
2022-08-11T21:04:56.935Z,17.55
2022-08-11T21:07:44.743Z,14.02
2022-08-11T21:10:43.816Z,12.32
2022-08-11T21:13:34.244Z,11.13
2022-08-11T21:16:27.021Z,9.52
2022-08-11T21:19:15.916Z,8.55
2022-08-11T21:22:03.744Z,7.30
2022-08-11T21:24:52.287Z,5.90
2022-08-11T21:27:39.170Z,6.82
2022-08-11T21:30:26.022Z,5.10
2022-08-11T21:33:15.166Z,6.30
2022-08-11T21:36:01.391Z,5.47
2022-08-11T21:38:47.942Z,5.75
2022-08-11T21:41:34.383Z,4.70
2022-08-11T21:44:21.100Z,5.13
2022-08-11T21:47:07.955Z,5.05
2022-08-11T21:49:56.161Z,4.20
2022-08-11T21:52:42.703Z,4.25
2022-08-11T21:55:29.073Z,3.95
2022-08-11T21:58:16.252Z,4.20
2022-08-11T22:01:03.366Z,3.83
2022-08-11T22:03:50.557Z,4.10
2022-08-11T22:06:39.334Z,4.32
2022-08-11T22:09:25.912Z,3.78
2022-08-11T22:12:33.869Z,3.80
2022-08-11T22:15:18.882Z,3.53
2022-08-11T22:18:04.759Z,3.67
2022-08-11T22:20:51.698Z,3.95
2022-08-11T22:23:40.621Z,3.63
2022-08-11T22:26:27.148Z,3.88
2022-08-11T22:29:13.186Z,4.22
2022-08-11T22:32:00.365Z,3.95
2022-08-11T22:34:52.750Z,3.80
2022-08-11T22:37:40.531Z,3.60
2022-08-11T22:40:29.520Z,3.75
2022-08-11T22:43:16.088Z,3.78
2022-08-11T22:46:03.566Z,3.40
2022-08-11T22:48:50.568Z,3.83
2022-08-11T22:51:39.482Z,3.90
2022-08-11T22:54:26.530Z,3.55
2022-08-11T22:57:14.381Z,3.33
2022-08-11T23:00:00.986Z,3.20
2022-08-11T23:02:47.611Z,3.08
2022-08-11T23:05:35.353Z,3.00
2022-08-11T23:08:22.062Z,2.88
2022-08-11T23:11:08.754Z,2.72
2022-08-11T23:13:56.662Z,2.70
2022-08-11T23:16:44.440Z,2.78
2022-08-11T23:20:06.923Z,2.80
2022-08-11T23:22:49.420Z,3.22
2022-08-11T23:25:36.752Z,2.55
2022-08-11T23:28:24.765Z,2.60
2022-08-11T23:31:13.636Z,2.97
2022-08-11T23:34:01.606Z,2.67
2022-08-11T23:36:48.207Z,2.70
2022-08-11T23:39:34.637Z,2.75
2022-08-11T23:42:20.904Z,2.50
2022-08-11T23:45:09.627Z,3.00
2022-08-11T23:47:58.146Z,3.00
2022-08-11T23:50:44.591Z,2.75
2022-08-11T23:53:32.208Z,2.97
2022-08-11T23:56:21.647Z,3.10
2022-08-11T23:59:09.189Z,2.75
